sensor_id;sensor_type;location;lat;lon;timestamp;temperature;humidity
71237;DHT22;58984;51.960;5.582;2023-07-31T00:01:15;23.00;57.80
71237;DHT22;58984;51.960;5.582;2023-07-31T00:03:41;23.00;57.80
71237;DHT22;58984;51.960;5.582;2023-07-31T00:06:06;23.00;57.80
71237;DHT22;58984;51.960;5.582;2023-07-31T00:08:32;23.00;57.90
71237;DHT22;58984;51.960;5.582;2023-07-31T00:10:57;23.00;58.00
71237;DHT22;58984;51.960;5.582;2023-07-31T00:13:23;22.90;58.00
71237;DHT22;58984;51.960;5.582;2023-07-31T00:15:49;23.00;58.00
71237;DHT22;58984;51.960;5.582;2023-07-31T00:18:14;22.90;58.10
71237;DHT22;58984;51.960;5.582;2023-07-31T00:20:40;22.90;58.10
71237;DHT22;58984;51.960;5.582;2023-07-31T00:23:06;22.90;58.20
71237;DHT22;58984;51.960;5.582;2023-07-31T00:25:31;22.90;58.20
71237;DHT22;58984;51.960;5.582;2023-07-31T00:27:57;22.90;59.00
71237;DHT22;58984;51.960;5.582;2023-07-31T00:30:22;22.90;58.50
71237;DHT22;58984;51.960;5.582;2023-07-31T00:32:50;22.90;58.50
71237;DHT22;58984;51.960;5.582;2023-07-31T00:35:16;22.90;58.60
71237;DHT22;58984;51.960;5.582;2023-07-31T00:37:42;22.90;58.70
71237;DHT22;58984;51.960;5.582;2023-07-31T00:40:08;22.90;58.70
71237;DHT22;58984;51.960;5.582;2023-07-31T00:42:34;22.90;58.70
71237;DHT22;58984;51.960;5.582;2023-07-31T00:44:59;22.90;58.70
71237;DHT22;58984;51.960;5.582;2023-07-31T00:47:25;22.90;58.90
71237;DHT22;58984;51.960;5.582;2023-07-31T00:49:51;22.90;59.00
71237;DHT22;58984;51.960;5.582;2023-07-31T00:52:17;22.90;59.00
71237;DHT22;58984;51.960;5.582;2023-07-31T00:54:43;22.90;59.00
71237;DHT22;58984;51.960;5.582;2023-07-31T00:57:09;22.90;59.10
71237;DHT22;58984;51.960;5.582;2023-07-31T00:59:35;22.90;59.10
71237;DHT22;58984;51.960;5.582;2023-07-31T01:02:00;22.90;59.20
71237;DHT22;58984;51.960;5.582;2023-07-31T01:04:27;22.90;59.20
71237;DHT22;58984;51.960;5.582;2023-07-31T01:07:11;22.90;59.20
71237;DHT22;58984;51.960;5.582;2023-07-31T01:12:09;23.00;59.20
71237;DHT22;58984;51.960;5.582;2023-07-31T01:14:37;22.90;59.20
71237;DHT22;58984;51.960;5.582;2023-07-31T01:17:02;22.90;59.20
71237;DHT22;58984;51.960;5.582;2023-07-31T01:19:28;22.90;59.30
71237;DHT22;58984;51.960;5.582;2023-07-31T01:27:17;22.80;59.50
71237;DHT22;58984;51.960;5.582;2023-07-31T01:30:05;22.90;59.50
71237;DHT22;58984;51.960;5.582;2023-07-31T01:32:36;22.90;59.50
71237;DHT22;58984;51.960;5.582;2023-07-31T01:35:04;22.90;59.40
71237;DHT22;58984;51.960;5.582;2023-07-31T01:37:30;22.90;59.50
71237;DHT22;58984;51.960;5.582;2023-07-31T01:39:56;22.90;59.50
71237;DHT22;58984;51.960;5.582;2023-07-31T01:42:21;22.90;59.20
71237;DHT22;58984;51.960;5.582;2023-07-31T01:44:47;22.90;59.50
71237;DHT22;58984;51.960;5.582;2023-07-31T01:47:13;22.90;59.60
71237;DHT22;58984;51.960;5.582;2023-07-31T01:49:38;22.90;59.60
71237;DHT22;58984;51.960;5.582;2023-07-31T01:52:04;22.90;59.60
71237;DHT22;58984;51.960;5.582;2023-07-31T01:54:30;22.90;59.60
71237;DHT22;58984;51.960;5.582;2023-07-31T01:56:55;22.90;59.70
71237;DHT22;58984;51.960;5.582;2023-07-31T01:59:21;22.90;59.70
71237;DHT22;58984;51.960;5.582;2023-07-31T02:01:46;22.90;59.60
71237;DHT22;58984;51.960;5.582;2023-07-31T02:04:12;22.90;59.70
71237;DHT22;58984;51.960;5.582;2023-07-31T02:06:38;22.90;59.80
71237;DHT22;58984;51.960;5.582;2023-07-31T02:09:04;22.90;59.80
71237;DHT22;58984;51.960;5.582;2023-07-31T02:11:29;22.90;59.80
71237;DHT22;58984;51.960;5.582;2023-07-31T02:13:55;22.90;59.80
71237;DHT22;58984;51.960;5.582;2023-07-31T02:16:20;22.90;59.70
71237;DHT22;58984;51.960;5.582;2023-07-31T02:18:46;22.90;59.80
71237;DHT22;58984;51.960;5.582;2023-07-31T02:21:12;22.90;59.80
71237;DHT22;58984;51.960;5.582;2023-07-31T02:23:37;22.90;59.80
71237;DHT22;58984;51.960;5.582;2023-07-31T02:26:03;22.90;59.80
71237;DHT22;58984;51.960;5.582;2023-07-31T02:28:29;22.90;59.80
71237;DHT22;58984;51.960;5.582;2023-07-31T02:30:55;22.90;59.80
71237;DHT22;58984;51.960;5.582;2023-07-31T02:33:20;22.90;59.90
71237;DHT22;58984;51.960;5.582;2023-07-31T02:35:46;22.90;59.90
71237;DHT22;58984;51.960;5.582;2023-07-31T02:38:11;22.90;60.00
71237;DHT22;58984;51.960;5.582;2023-07-31T02:40:37;22.90;59.90
71237;DHT22;58984;51.960;5.582;2023-07-31T02:43:03;22.90;59.90
71237;DHT22;58984;51.960;5.582;2023-07-31T02:45:28;22.90;60.00
71237;DHT22;58984;51.960;5.582;2023-07-31T02:47:54;22.90;60.00
71237;DHT22;58984;51.960;5.582;2023-07-31T02:50:19;22.90;60.00
71237;DHT22;58984;51.960;5.582;2023-07-31T02:52:45;22.90;60.10
71237;DHT22;58984;51.960;5.582;2023-07-31T02:55:10;22.80;60.00
71237;DHT22;58984;51.960;5.582;2023-07-31T02:57:36;22.90;60.00
71237;DHT22;58984;51.960;5.582;2023-07-31T03:00:01;22.80;59.90
71237;DHT22;58984;51.960;5.582;2023-07-31T03:02:31;22.90;60.00
71237;DHT22;58984;51.960;5.582;2023-07-31T03:04:56;22.80;59.90
71237;DHT22;58984;51.960;5.582;2023-07-31T03:07:22;22.80;60.00
71237;DHT22;58984;51.960;5.582;2023-07-31T03:09:47;22.80;60.00
71237;DHT22;58984;51.960;5.582;2023-07-31T03:12:13;22.80;60.00
71237;DHT22;58984;51.960;5.582;2023-07-31T03:14:38;22.80;60.00
71237;DHT22;58984;51.960;5.582;2023-07-31T03:17:04;22.80;60.00
71237;DHT22;58984;51.960;5.582;2023-07-31T03:19:33;22.80;60.00
71237;DHT22;58984;51.960;5.582;2023-07-31T03:21:59;22.80;60.00
71237;DHT22;58984;51.960;5.582;2023-07-31T03:24:25;22.80;60.00
71237;DHT22;58984;51.960;5.582;2023-07-31T03:26:51;22.80;60.00
71237;DHT22;58984;51.960;5.582;2023-07-31T03:29:16;22.80;59.90
71237;DHT22;58984;51.960;5.582;2023-07-31T03:31:42;22.80;59.90
71237;DHT22;58984;51.960;5.582;2023-07-31T03:34:08;22.80;59.80
71237;DHT22;58984;51.960;5.582;2023-07-31T03:36:33;22.80;59.80
71237;DHT22;58984;51.960;5.582;2023-07-31T03:38:59;22.80;59.80
71237;DHT22;58984;51.960;5.582;2023-07-31T03:41:24;22.80;59.80
71237;DHT22;58984;51.960;5.582;2023-07-31T03:43:51;22.80;59.80
71237;DHT22;58984;51.960;5.582;2023-07-31T03:46:24;22.80;59.90
71237;DHT22;58984;51.960;5.582;2023-07-31T03:48:50;22.80;59.80
71237;DHT22;58984;51.960;5.582;2023-07-31T03:51:16;22.80;59.80
71237;DHT22;58984;51.960;5.582;2023-07-31T03:53:43;22.80;59.80
71237;DHT22;58984;51.960;5.582;2023-07-31T03:56:08;22.80;59.90
71237;DHT22;58984;51.960;5.582;2023-07-31T03:58:34;22.70;59.80
71237;DHT22;58984;51.960;5.582;2023-07-31T04:01:01;22.70;59.80
71237;DHT22;58984;51.960;5.582;2023-07-31T04:03:26;22.80;59.90
71237;DHT22;58984;51.960;5.582;2023-07-31T04:05:54;22.80;59.80
71237;DHT22;58984;51.960;5.582;2023-07-31T04:08:21;22.70;59.80
71237;DHT22;58984;51.960;5.582;2023-07-31T04:10:47;22.70;59.70
71237;DHT22;58984;51.960;5.582;2023-07-31T04:13:12;22.70;59.70
71237;DHT22;58984;51.960;5.582;2023-07-31T04:15:38;22.70;59.70
71237;DHT22;58984;51.960;5.582;2023-07-31T04:18:05;22.70;59.70
71237;DHT22;58984;51.960;5.582;2023-07-31T04:20:30;22.70;59.70
71237;DHT22;58984;51.960;5.582;2023-07-31T04:22:56;22.70;59.70
71237;DHT22;58984;51.960;5.582;2023-07-31T04:25:22;22.70;59.70
71237;DHT22;58984;51.960;5.582;2023-07-31T04:27:47;22.70;59.80
71237;DHT22;58984;51.960;5.582;2023-07-31T04:30:13;22.70;59.70
71237;DHT22;58984;51.960;5.582;2023-07-31T04:32:39;22.70;59.80
71237;DHT22;58984;51.960;5.582;2023-07-31T04:35:05;22.70;59.80
71237;DHT22;58984;51.960;5.582;2023-07-31T04:37:30;22.70;59.80
71237;DHT22;58984;51.960;5.582;2023-07-31T04:39:56;22.70;59.80
71237;DHT22;58984;51.960;5.582;2023-07-31T04:42:22;22.70;59.70
71237;DHT22;58984;51.960;5.582;2023-07-31T04:44:47;22.70;59.70
71237;DHT22;58984;51.960;5.582;2023-07-31T04:47:13;22.70;59.70
71237;DHT22;58984;51.960;5.582;2023-07-31T04:49:38;22.70;59.70
71237;DHT22;58984;51.960;5.582;2023-07-31T04:52:04;22.60;59.70
71237;DHT22;58984;51.960;5.582;2023-07-31T04:54:30;22.70;59.70
71237;DHT22;58984;51.960;5.582;2023-07-31T04:56:55;22.70;59.80
71237;DHT22;58984;51.960;5.582;2023-07-31T04:59:21;22.70;59.70
71237;DHT22;58984;51.960;5.582;2023-07-31T05:01:47;22.60;59.70
71237;DHT22;58984;51.960;5.582;2023-07-31T05:04:13;22.60;59.70
71237;DHT22;58984;51.960;5.582;2023-07-31T05:06:40;22.70;59.90
71237;DHT22;58984;51.960;5.582;2023-07-31T05:09:05;22.70;59.90
71237;DHT22;58984;51.960;5.582;2023-07-31T05:11:31;22.70;59.90
71237;DHT22;58984;51.960;5.582;2023-07-31T05:13:59;22.60;59.80
71237;DHT22;58984;51.960;5.582;2023-07-31T05:16:25;22.60;59.90
71237;DHT22;58984;51.960;5.582;2023-07-31T05:18:50;22.60;59.90
71237;DHT22;58984;51.960;5.582;2023-07-31T05:21:16;22.60;60.00
71237;DHT22;58984;51.960;5.582;2023-07-31T05:23:42;22.60;59.90
71237;DHT22;58984;51.960;5.582;2023-07-31T05:26:08;22.60;60.00
71237;DHT22;58984;51.960;5.582;2023-07-31T05:28:37;22.60;60.10
71237;DHT22;58984;51.960;5.582;2023-07-31T05:31:04;22.60;60.10
71237;DHT22;58984;51.960;5.582;2023-07-31T05:33:30;22.60;60.10
71237;DHT22;58984;51.960;5.582;2023-07-31T05:35:56;22.60;60.00
71237;DHT22;58984;51.960;5.582;2023-07-31T05:38:22;22.60;60.10
71237;DHT22;58984;51.960;5.582;2023-07-31T05:40:48;22.60;60.10
71237;DHT22;58984;51.960;5.582;2023-07-31T05:43:14;22.60;60.10
71237;DHT22;58984;51.960;5.582;2023-07-31T05:45:42;22.60;60.00
71237;DHT22;58984;51.960;5.582;2023-07-31T05:48:08;22.60;60.10
71237;DHT22;58984;51.960;5.582;2023-07-31T05:50:34;22.60;60.10
71237;DHT22;58984;51.960;5.582;2023-07-31T05:53:00;22.60;61.20
71237;DHT22;58984;51.960;5.582;2023-07-31T05:55:25;22.60;60.10
71237;DHT22;58984;51.960;5.582;2023-07-31T05:57:54;22.60;60.70
71237;DHT22;58984;51.960;5.582;2023-07-31T06:00:20;22.60;60.70
71237;DHT22;58984;51.960;5.582;2023-07-31T06:02:46;22.60;60.70
71237;DHT22;58984;51.960;5.582;2023-07-31T06:05:12;22.60;60.70
71237;DHT22;58984;51.960;5.582;2023-07-31T06:07:38;22.60;60.80
71237;DHT22;58984;51.960;5.582;2023-07-31T06:10:04;22.50;60.60
71237;DHT22;58984;51.960;5.582;2023-07-31T06:12:34;22.50;60.70
71237;DHT22;58984;51.960;5.582;2023-07-31T06:15:00;22.50;60.90
71237;DHT22;58984;51.960;5.582;2023-07-31T06:17:26;22.50;60.70
71237;DHT22;58984;51.960;5.582;2023-07-31T06:19:52;22.50;60.70
71237;DHT22;58984;51.960;5.582;2023-07-31T06:22:17;22.50;60.90
71237;DHT22;58984;51.960;5.582;2023-07-31T06:24:43;22.60;61.10
71237;DHT22;58984;51.960;5.582;2023-07-31T06:27:09;22.60;61.30
71237;DHT22;58984;51.960;5.582;2023-07-31T06:29:34;22.50;61.30
71237;DHT22;58984;51.960;5.582;2023-07-31T06:32:00;22.50;61.40
71237;DHT22;58984;51.960;5.582;2023-07-31T06:34:26;22.50;61.40
71237;DHT22;58984;51.960;5.582;2023-07-31T06:36:51;22.50;61.40
71237;DHT22;58984;51.960;5.582;2023-07-31T06:39:17;22.50;61.50
71237;DHT22;58984;51.960;5.582;2023-07-31T06:41:44;22.50;61.50
71237;DHT22;58984;51.960;5.582;2023-07-31T06:44:10;22.50;61.40
71237;DHT22;58984;51.960;5.582;2023-07-31T06:46:35;22.50;61.40
71237;DHT22;58984;51.960;5.582;2023-07-31T06:49:01;22.50;61.50
71237;DHT22;58984;51.960;5.582;2023-07-31T06:51:27;22.50;61.60
71237;DHT22;58984;51.960;5.582;2023-07-31T06:53:52;22.50;61.70
71237;DHT22;58984;51.960;5.582;2023-07-31T06:56:18;22.50;61.70
71237;DHT22;58984;51.960;5.582;2023-07-31T06:58:43;22.50;61.60
71237;DHT22;58984;51.960;5.582;2023-07-31T07:01:09;22.50;61.70
71237;DHT22;58984;51.960;5.582;2023-07-31T07:03:35;22.50;61.80
71237;DHT22;58984;51.960;5.582;2023-07-31T07:06:00;22.50;61.90
71237;DHT22;58984;51.960;5.582;2023-07-31T07:08:26;22.50;61.80
71237;DHT22;58984;51.960;5.582;2023-07-31T07:10:52;22.50;62.00
71237;DHT22;58984;51.960;5.582;2023-07-31T07:13:21;22.50;62.00
71237;DHT22;58984;51.960;5.582;2023-07-31T07:15:51;22.50;62.20
71237;DHT22;58984;51.960;5.582;2023-07-31T07:18:17;22.50;62.00
71237;DHT22;58984;51.960;5.582;2023-07-31T07:20:53;22.50;62.00
71237;DHT22;58984;51.960;5.582;2023-07-31T07:23:20;22.50;62.20
71237;DHT22;58984;51.960;5.582;2023-07-31T07:25:46;22.50;62.10
71237;DHT22;58984;51.960;5.582;2023-07-31T07:28:13;22.50;62.20
71237;DHT22;58984;51.960;5.582;2023-07-31T07:30:39;22.50;62.40
71237;DHT22;58984;51.960;5.582;2023-07-31T07:33:04;22.50;62.40
71237;DHT22;58984;51.960;5.582;2023-07-31T07:35:30;22.50;62.40
71237;DHT22;58984;51.960;5.582;2023-07-31T07:37:58;22.50;62.40
71237;DHT22;58984;51.960;5.582;2023-07-31T07:40:23;22.50;62.60
71237;DHT22;58984;51.960;5.582;2023-07-31T07:42:50;22.50;62.50
71237;DHT22;58984;51.960;5.582;2023-07-31T07:45:15;22.50;62.50
71237;DHT22;58984;51.960;5.582;2023-07-31T07:47:41;22.50;62.50
71237;DHT22;58984;51.960;5.582;2023-07-31T07:50:07;22.50;62.60
71237;DHT22;58984;51.960;5.582;2023-07-31T07:52:33;22.50;62.70
71237;DHT22;58984;51.960;5.582;2023-07-31T07:54:59;22.50;62.50
71237;DHT22;58984;51.960;5.582;2023-07-31T07:57:25;22.50;62.60
71237;DHT22;58984;51.960;5.582;2023-07-31T07:59:51;22.50;62.70
71237;DHT22;58984;51.960;5.582;2023-07-31T08:02:17;22.50;62.80
71237;DHT22;58984;51.960;5.582;2023-07-31T08:04:42;22.50;62.90
71237;DHT22;58984;51.960;5.582;2023-07-31T08:07:10;22.50;62.90
71237;DHT22;58984;51.960;5.582;2023-07-31T08:09:36;22.50;62.80
71237;DHT22;58984;51.960;5.582;2023-07-31T08:12:01;22.60;62.80
71237;DHT22;58984;51.960;5.582;2023-07-31T08:14:28;22.50;62.90
71237;DHT22;58984;51.960;5.582;2023-07-31T08:16:54;22.50;63.80
71237;DHT22;58984;51.960;5.582;2023-07-31T08:19:20;22.50;63.00
71237;DHT22;58984;51.960;5.582;2023-07-31T08:21:46;22.50;63.00
71237;DHT22;58984;51.960;5.582;2023-07-31T08:24:11;22.60;63.20
71237;DHT22;58984;51.960;5.582;2023-07-31T08:26:37;22.60;63.10
71237;DHT22;58984;51.960;5.582;2023-07-31T08:29:02;22.60;63.20
71237;DHT22;58984;51.960;5.582;2023-07-31T08:31:28;22.50;63.10
71237;DHT22;58984;51.960;5.582;2023-07-31T08:33:55;22.50;63.10
71237;DHT22;58984;51.960;5.582;2023-07-31T08:36:21;22.60;63.10
71237;DHT22;58984;51.960;5.582;2023-07-31T08:38:47;22.50;63.10
71237;DHT22;58984;51.960;5.582;2023-07-31T08:41:12;22.50;63.10
71237;DHT22;58984;51.960;5.582;2023-07-31T08:43:39;22.60;63.20
71237;DHT22;58984;51.960;5.582;2023-07-31T08:46:05;22.50;63.30
71237;DHT22;58984;51.960;5.582;2023-07-31T08:48:32;22.50;63.50
71237;DHT22;58984;51.960;5.582;2023-07-31T08:50:58;22.60;63.60
71237;DHT22;58984;51.960;5.582;2023-07-31T08:53:24;22.60;63.60
71237;DHT22;58984;51.960;5.582;2023-07-31T08:55:50;22.60;63.60
71237;DHT22;58984;51.960;5.582;2023-07-31T08:58:18;22.60;63.70
71237;DHT22;58984;51.960;5.582;2023-07-31T09:00:46;22.60;63.60
71237;DHT22;58984;51.960;5.582;2023-07-31T09:03:17;22.60;63.70
71237;DHT22;58984;51.960;5.582;2023-07-31T09:05:44;22.50;63.60
71237;DHT22;58984;51.960;5.582;2023-07-31T09:08:15;22.60;63.60
71237;DHT22;58984;51.960;5.582;2023-07-31T09:10:44;22.60;63.60
71237;DHT22;58984;51.960;5.582;2023-07-31T09:13:11;22.60;63.70
71237;DHT22;58984;51.960;5.582;2023-07-31T09:15:37;22.60;63.80
71237;DHT22;58984;51.960;5.582;2023-07-31T09:18:05;22.60;63.80
71237;DHT22;58984;51.960;5.582;2023-07-31T09:20:30;22.60;63.80
71237;DHT22;58984;51.960;5.582;2023-07-31T09:23:05;22.60;63.70
71237;DHT22;58984;51.960;5.582;2023-07-31T09:25:31;22.60;63.80
71237;DHT22;58984;51.960;5.582;2023-07-31T09:27:59;22.60;63.80
71237;DHT22;58984;51.960;5.582;2023-07-31T09:30:25;22.60;63.80
71237;DHT22;58984;51.960;5.582;2023-07-31T09:33:06;22.60;63.80
71237;DHT22;58984;51.960;5.582;2023-07-31T09:35:36;22.60;63.80
71237;DHT22;58984;51.960;5.582;2023-07-31T09:38:15;22.60;63.40
71237;DHT22;58984;51.960;5.582;2023-07-31T09:40:43;22.60;63.70
71237;DHT22;58984;51.960;5.582;2023-07-31T09:43:12;22.60;63.60
71237;DHT22;58984;51.960;5.582;2023-07-31T09:45:42;22.60;63.80
71237;DHT22;58984;51.960;5.582;2023-07-31T09:50:44;22.60;63.60
71237;DHT22;58984;51.960;5.582;2023-07-31T09:53:19;22.60;64.00
71237;DHT22;58984;51.960;5.582;2023-07-31T09:55:45;22.70;63.90
71237;DHT22;58984;51.960;5.582;2023-07-31T09:58:13;22.70;63.70
71237;DHT22;58984;51.960;5.582;2023-07-31T10:00:39;22.60;63.70
71237;DHT22;58984;51.960;5.582;2023-07-31T10:03:17;22.70;63.80
71237;DHT22;58984;51.960;5.582;2023-07-31T10:05:49;22.60;63.80
71237;DHT22;58984;51.960;5.582;2023-07-31T10:08:20;22.70;63.90
71237;DHT22;58984;51.960;5.582;2023-07-31T10:10:47;22.60;63.80
71237;DHT22;58984;51.960;5.582;2023-07-31T10:13:18;22.70;63.70
71237;DHT22;58984;51.960;5.582;2023-07-31T10:15:47;22.70;63.80
71237;DHT22;58984;51.960;5.582;2023-07-31T10:18:14;22.70;63.70
71237;DHT22;58984;51.960;5.582;2023-07-31T10:20:47;22.70;63.90
71237;DHT22;58984;51.960;5.582;2023-07-31T10:23:16;22.70;63.80
71237;DHT22;58984;51.960;5.582;2023-07-31T10:25:45;22.70;63.80
71237;DHT22;58984;51.960;5.582;2023-07-31T10:28:12;22.70;63.70
71237;DHT22;58984;51.960;5.582;2023-07-31T10:30:42;22.70;63.50
71237;DHT22;58984;51.960;5.582;2023-07-31T10:33:22;22.70;63.80
71237;DHT22;58984;51.960;5.582;2023-07-31T10:35:50;22.80;63.90
71237;DHT22;58984;51.960;5.582;2023-07-31T10:38:19;22.70;63.60
71237;DHT22;58984;51.960;5.582;2023-07-31T10:40:44;22.80;63.80
71237;DHT22;58984;51.960;5.582;2023-07-31T10:43:24;22.80;63.80
71237;DHT22;58984;51.960;5.582;2023-07-31T10:45:50;22.70;64.00
71237;DHT22;58984;51.960;5.582;2023-07-31T10:48:16;22.80;63.70
71237;DHT22;58984;51.960;5.582;2023-07-31T10:50:50;22.80;63.70
71237;DHT22;58984;51.960;5.582;2023-07-31T10:53:26;22.70;63.50
71237;DHT22;58984;51.960;5.582;2023-07-31T10:55:52;22.70;63.50
71237;DHT22;58984;51.960;5.582;2023-07-31T10:58:19;22.80;63.70
71237;DHT22;58984;51.960;5.582;2023-07-31T11:00:45;22.80;63.60
71237;DHT22;58984;51.960;5.582;2023-07-31T11:03:15;22.80;63.60
71237;DHT22;58984;51.960;5.582;2023-07-31T11:05:43;22.80;63.70
71237;DHT22;58984;51.960;5.582;2023-07-31T11:10:38;22.80;63.80
71237;DHT22;58984;51.960;5.582;2023-07-31T11:13:06;22.80;63.60
71237;DHT22;58984;51.960;5.582;2023-07-31T11:15:32;22.80;64.20
71237;DHT22;58984;51.960;5.582;2023-07-31T11:18:00;22.80;63.60
71237;DHT22;58984;51.960;5.582;2023-07-31T11:20:25;22.80;63.60
71237;DHT22;58984;51.960;5.582;2023-07-31T11:22:52;22.90;63.80
71237;DHT22;58984;51.960;5.582;2023-07-31T11:25:18;22.90;63.80
71237;DHT22;58984;51.960;5.582;2023-07-31T11:27:43;22.90;63.80
71237;DHT22;58984;51.960;5.582;2023-07-31T11:30:10;22.90;63.70
71237;DHT22;58984;51.960;5.582;2023-07-31T11:32:37;22.90;63.80
71237;DHT22;58984;51.960;5.582;2023-07-31T11:35:03;22.90;63.90
71237;DHT22;58984;51.960;5.582;2023-07-31T11:37:43;22.90;63.90
71237;DHT22;58984;51.960;5.582;2023-07-31T11:40:09;22.90;64.00
71237;DHT22;58984;51.960;5.582;2023-07-31T11:42:35;23.00;63.90
71237;DHT22;58984;51.960;5.582;2023-07-31T11:45:08;23.00;63.90
71237;DHT22;58984;51.960;5.582;2023-07-31T11:47:37;22.90;64.40
71237;DHT22;58984;51.960;5.582;2023-07-31T11:50:04;23.00;64.40
71237;DHT22;58984;51.960;5.582;2023-07-31T11:52:34;23.00;64.40
71237;DHT22;58984;51.960;5.582;2023-07-31T11:55:00;23.00;64.50
71237;DHT22;58984;51.960;5.582;2023-07-31T11:57:26;23.00;64.40
71237;DHT22;58984;51.960;5.582;2023-07-31T11:59:53;23.00;64.00
71237;DHT22;58984;51.960;5.582;2023-07-31T12:02:20;23.00;64.10
71237;DHT22;58984;51.960;5.582;2023-07-31T12:04:46;23.00;64.50
71237;DHT22;58984;51.960;5.582;2023-07-31T12:07:12;23.00;64.50
71237;DHT22;58984;51.960;5.582;2023-07-31T12:09:38;23.00;64.50
71237;DHT22;58984;51.960;5.582;2023-07-31T12:12:08;23.00;64.30
71237;DHT22;58984;51.960;5.582;2023-07-31T12:14:34;23.00;64.30
71237;DHT22;58984;51.960;5.582;2023-07-31T12:17:04;23.10;64.30
71237;DHT22;58984;51.960;5.582;2023-07-31T12:19:30;23.10;64.40
71237;DHT22;58984;51.960;5.582;2023-07-31T12:21:56;23.10;64.30
71237;DHT22;58984;51.960;5.582;2023-07-31T12:24:24;23.10;64.30
71237;DHT22;58984;51.960;5.582;2023-07-31T12:26:51;23.10;64.10
71237;DHT22;58984;51.960;5.582;2023-07-31T12:29:18;23.10;64.10
71237;DHT22;58984;51.960;5.582;2023-07-31T12:31:43;23.10;64.10
71237;DHT22;58984;51.960;5.582;2023-07-31T12:34:17;23.10;64.10
71237;DHT22;58984;51.960;5.582;2023-07-31T12:36:43;23.00;64.20
71237;DHT22;58984;51.960;5.582;2023-07-31T12:39:09;23.10;64.00
71237;DHT22;58984;51.960;5.582;2023-07-31T12:41:35;23.10;64.30
71237;DHT22;58984;51.960;5.582;2023-07-31T12:44:00;23.10;64.30
71237;DHT22;58984;51.960;5.582;2023-07-31T12:46:26;23.10;64.40
71237;DHT22;58984;51.960;5.582;2023-07-31T12:48:51;23.20;64.50
71237;DHT22;58984;51.960;5.582;2023-07-31T12:51:17;23.10;64.40
71237;DHT22;58984;51.960;5.582;2023-07-31T12:53:43;23.10;64.50
71237;DHT22;58984;51.960;5.582;2023-07-31T12:56:08;23.20;64.70
71237;DHT22;58984;51.960;5.582;2023-07-31T12:58:34;23.20;64.60
71237;DHT22;58984;51.960;5.582;2023-07-31T13:00:59;23.20;64.80
71237;DHT22;58984;51.960;5.582;2023-07-31T13:03:25;23.20;64.80
71237;DHT22;58984;51.960;5.582;2023-07-31T13:05:51;23.20;65.00
71237;DHT22;58984;51.960;5.582;2023-07-31T13:08:17;23.20;64.60
71237;DHT22;58984;51.960;5.582;2023-07-31T13:10:43;23.20;64.50
71237;DHT22;58984;51.960;5.582;2023-07-31T13:13:09;23.30;64.80
71237;DHT22;58984;51.960;5.582;2023-07-31T13:15:35;23.20;64.80
71237;DHT22;58984;51.960;5.582;2023-07-31T13:18:04;23.20;64.50
71237;DHT22;58984;51.960;5.582;2023-07-31T13:20:30;23.20;64.60
71237;DHT22;58984;51.960;5.582;2023-07-31T13:22:55;23.30;64.80
71237;DHT22;58984;51.960;5.582;2023-07-31T13:25:21;23.30;65.10
71237;DHT22;58984;51.960;5.582;2023-07-31T13:27:50;23.30;65.00
71237;DHT22;58984;51.960;5.582;2023-07-31T13:30:18;23.30;65.20
71237;DHT22;58984;51.960;5.582;2023-07-31T13:32:49;23.30;64.80
71237;DHT22;58984;51.960;5.582;2023-07-31T13:35:17;23.30;65.30
71237;DHT22;58984;51.960;5.582;2023-07-31T13:37:43;23.30;65.10
71237;DHT22;58984;51.960;5.582;2023-07-31T13:40:09;23.30;64.70
71237;DHT22;58984;51.960;5.582;2023-07-31T13:42:35;23.30;65.20
71237;DHT22;58984;51.960;5.582;2023-07-31T13:45:01;23.30;65.10
71237;DHT22;58984;51.960;5.582;2023-07-31T13:47:27;23.30;65.10
71237;DHT22;58984;51.960;5.582;2023-07-31T13:49:52;23.30;65.30
71237;DHT22;58984;51.960;5.582;2023-07-31T13:52:18;23.30;65.50
71237;DHT22;58984;51.960;5.582;2023-07-31T13:54:43;23.30;65.50
71237;DHT22;58984;51.960;5.582;2023-07-31T13:57:11;23.30;65.50
71237;DHT22;58984;51.960;5.582;2023-07-31T13:59:37;23.30;65.50
71237;DHT22;58984;51.960;5.582;2023-07-31T14:02:03;23.30;65.90
71237;DHT22;58984;51.960;5.582;2023-07-31T14:04:29;23.30;66.10
71237;DHT22;58984;51.960;5.582;2023-07-31T14:06:55;23.30;65.70
71237;DHT22;58984;51.960;5.582;2023-07-31T14:09:24;23.30;66.20
71237;DHT22;58984;51.960;5.582;2023-07-31T14:11:50;23.30;66.00
71237;DHT22;58984;51.960;5.582;2023-07-31T14:14:16;23.40;65.50
71237;DHT22;58984;51.960;5.582;2023-07-31T14:16:43;23.30;66.30
71237;DHT22;58984;51.960;5.582;2023-07-31T14:19:11;23.30;66.00
71237;DHT22;58984;51.960;5.582;2023-07-31T14:21:40;23.30;66.50
71237;DHT22;58984;51.960;5.582;2023-07-31T14:27:40;23.20;66.70
71237;DHT22;58984;51.960;5.582;2023-07-31T14:33:15;23.30;66.80
71237;DHT22;58984;51.960;5.582;2023-07-31T14:35:41;23.30;66.60
71237;DHT22;58984;51.960;5.582;2023-07-31T14:38:06;23.30;66.70
71237;DHT22;58984;51.960;5.582;2023-07-31T14:40:32;23.30;66.80
71237;DHT22;58984;51.960;5.582;2023-07-31T14:42:58;23.30;66.80
71237;DHT22;58984;51.960;5.582;2023-07-31T14:45:23;23.30;66.80
71237;DHT22;58984;51.960;5.582;2023-07-31T14:47:49;23.30;66.80
71237;DHT22;58984;51.960;5.582;2023-07-31T14:50:15;23.30;66.80
71237;DHT22;58984;51.960;5.582;2023-07-31T14:52:41;23.30;67.00
71237;DHT22;58984;51.960;5.582;2023-07-31T14:55:06;23.30;66.90
71237;DHT22;58984;51.960;5.582;2023-07-31T14:57:33;23.30;66.80
71237;DHT22;58984;51.960;5.582;2023-07-31T14:59:59;23.30;66.90
71237;DHT22;58984;51.960;5.582;2023-07-31T15:02:26;23.30;66.90
71237;DHT22;58984;51.960;5.582;2023-07-31T15:04:52;23.30;66.80
71237;DHT22;58984;51.960;5.582;2023-07-31T15:07:18;23.30;66.80
71237;DHT22;58984;51.960;5.582;2023-07-31T15:09:43;23.30;66.80
71237;DHT22;58984;51.960;5.582;2023-07-31T15:12:09;23.30;66.80
71237;DHT22;58984;51.960;5.582;2023-07-31T15:14:35;23.30;66.90
71237;DHT22;58984;51.960;5.582;2023-07-31T15:17:00;23.30;66.80
71237;DHT22;58984;51.960;5.582;2023-07-31T15:19:26;23.30;67.10
71237;DHT22;58984;51.960;5.582;2023-07-31T15:21:51;23.30;67.00
71237;DHT22;58984;51.960;5.582;2023-07-31T15:24:18;23.30;66.80
71237;DHT22;58984;51.960;5.582;2023-07-31T15:26:43;23.30;67.90
71237;DHT22;58984;51.960;5.582;2023-07-31T15:29:09;23.30;67.80
71237;DHT22;58984;51.960;5.582;2023-07-31T15:31:41;23.30;67.20
71237;DHT22;58984;51.960;5.582;2023-07-31T15:34:07;23.40;67.40
71237;DHT22;58984;51.960;5.582;2023-07-31T15:36:32;23.30;67.40
71237;DHT22;58984;51.960;5.582;2023-07-31T15:38:58;23.30;67.70
71237;DHT22;58984;51.960;5.582;2023-07-31T15:41:24;23.30;67.50
71237;DHT22;58984;51.960;5.582;2023-07-31T15:43:50;23.30;67.50
71237;DHT22;58984;51.960;5.582;2023-07-31T15:46:17;23.30;67.60